createdAt,value
2019-04-25T00:00:51.422Z,15.60
2019-04-25T00:03:29.404Z,15.60
2019-04-25T00:05:59.920Z,15.50
2019-04-25T00:08:31.189Z,15.50
2019-04-25T00:11:02.469Z,15.40
2019-04-25T00:13:33.109Z,15.50
2019-04-25T00:16:03.618Z,15.40
2019-04-25T00:18:34.080Z,15.30
2019-04-25T00:21:06.227Z,15.30
2019-04-25T00:23:39.364Z,15.20
2019-04-25T00:26:15.341Z,15.30
2019-04-25T00:28:46.680Z,15.20
2019-04-25T00:31:18.236Z,15.10
2019-04-25T00:33:49.491Z,15.10
2019-04-25T00:36:21.450Z,15.10
2019-04-25T00:38:53.239Z,15.10
2019-04-25T00:41:24.035Z,15.00
2019-04-25T00:43:54.501Z,15.10
2019-04-25T00:46:25.011Z,15.00
2019-04-25T00:48:56.473Z,14.90
2019-04-25T00:51:27.062Z,14.90
2019-04-25T00:53:57.457Z,14.90
2019-04-25T00:56:27.889Z,14.80
2019-04-25T00:59:15.860Z,14.80
2019-04-25T01:01:54.111Z,14.80
2019-04-25T01:04:26.098Z,14.80
2019-04-25T01:06:56.607Z,14.80
2019-04-25T01:09:28.551Z,14.80
2019-04-25T01:11:59.103Z,14.80
2019-04-25T01:14:29.542Z,14.80
2019-04-25T01:17:01.681Z,14.80
2019-04-25T01:19:32.221Z,14.70
2019-04-25T01:22:03.827Z,14.70
2019-04-25T01:24:34.320Z,14.70
2019-04-25T01:27:05.398Z,14.70
2019-04-25T01:29:35.953Z,14.70
2019-04-25T01:32:07.992Z,14.70
2019-04-25T01:34:44.283Z,14.60
2019-04-25T01:37:19.495Z,14.60
2019-04-25T01:39:55.333Z,14.60
2019-04-25T01:42:31.268Z,14.50
2019-04-25T01:45:03.961Z,14.50
2019-04-25T01:47:35.288Z,14.40
2019-04-25T01:50:07.252Z,14.50
2019-04-25T01:52:37.777Z,14.50
2019-04-25T01:55:08.916Z,14.50
2019-04-25T01:57:39.315Z,14.40
2019-04-25T02:00:13.771Z,14.40
2019-04-25T02:02:43.910Z,14.40
2019-04-25T02:05:14.426Z,14.30
2019-04-25T02:07:44.898Z,14.30
2019-04-25T02:10:15.681Z,14.20
2019-04-25T02:12:47.727Z,14.20
2019-04-25T02:15:19.788Z,14.10
2019-04-25T02:17:50.936Z,14.10
2019-04-25T02:20:23.831Z,14.10
2019-04-25T02:22:55.279Z,14.10
2019-04-25T02:25:26.111Z,14.10
2019-04-25T02:27:59.951Z,14.10
2019-04-25T02:30:28.648Z,14.00
2019-04-25T02:33:02.763Z,14.00
2019-04-25T02:35:31.245Z,13.90
2019-04-25T02:38:04.605Z,13.90
2019-04-25T02:40:34.031Z,13.80
2019-04-25T02:43:08.031Z,13.80
2019-04-25T02:45:38.332Z,13.80
2019-04-25T02:48:15.796Z,13.70
2019-04-25T02:50:56.410Z,13.70
2019-04-25T02:53:36.937Z,13.60
2019-04-25T02:56:26.105Z,13.50
2019-04-25T02:58:39.434Z,13.40
2019-04-25T03:01:19.681Z,13.30
2019-04-25T03:03:44.968Z,13.20
2019-04-25T03:06:15.627Z,13.10
2019-04-25T03:08:46.133Z,12.90
2019-04-25T03:11:16.537Z,12.80
2019-04-25T03:13:47.032Z,12.70
2019-04-25T03:16:17.434Z,12.60
2019-04-25T03:18:49.507Z,12.50
2019-04-25T03:21:27.570Z,12.40
2019-04-25T03:23:58.624Z,12.30
2019-04-25T03:26:39.742Z,12.20
2019-04-25T03:29:03.536Z,12.10
2019-04-25T03:31:34.974Z,12.00
2019-04-25T03:34:10.215Z,11.90
2019-04-25T03:36:38.014Z,11.80
2019-04-25T03:39:08.912Z,11.70
2019-04-25T03:41:39.303Z,11.70
2019-04-25T03:44:10.077Z,11.70
2019-04-25T03:46:40.520Z,11.60
2019-04-25T03:49:11.707Z,11.60
2019-04-25T03:51:43.816Z,11.60
2019-04-25T03:54:15.352Z,11.60
2019-04-25T03:56:53.664Z,11.70
2019-04-25T03:59:17.887Z,11.90
2019-04-25T04:01:48.281Z,12.20
2019-04-25T04:04:18.713Z,12.50
2019-04-25T04:06:49.107Z,12.60
2019-04-25T04:09:19.543Z,12.80
2019-04-25T04:11:49.942Z,12.80
2019-04-25T04:14:20.639Z,13.00
2019-04-25T04:17:11.010Z,13.10
2019-04-25T04:19:54.721Z,13.20
2019-04-25T04:22:36.750Z,13.40
2019-04-25T04:25:09.539Z,13.50
2019-04-25T04:27:39.985Z,13.70
2019-04-25T04:30:10.727Z,13.90
2019-04-25T04:32:41.119Z,14.00
2019-04-25T04:35:13.744Z,14.20
2019-04-25T04:37:43.791Z,14.40
2019-04-25T04:40:17.233Z,14.60
2019-04-25T04:42:47.363Z,14.70
2019-04-25T04:45:18.257Z,14.90
2019-04-25T04:47:48.680Z,14.80
2019-04-25T04:50:19.120Z,14.80
2019-04-25T04:52:49.515Z,14.80
2019-04-25T04:55:19.958Z,14.80
2019-04-25T04:57:50.360Z,14.80
2019-04-25T05:00:21.570Z,14.80
2019-04-25T05:02:53.603Z,14.80
2019-04-25T05:05:40.465Z,14.90
2019-04-25T05:08:13.002Z,15.00
2019-04-25T05:10:44.643Z,15.10
2019-04-25T05:13:16.651Z,15.20
2019-04-25T05:15:47.277Z,15.20
2019-04-25T05:18:32.947Z,15.30
2019-04-25T05:20:49.991Z,15.40
2019-04-25T05:23:20.974Z,15.50
2019-04-25T05:25:51.512Z,15.70
2019-04-25T05:28:24.560Z,15.80
2019-04-25T05:31:05.277Z,15.90
2019-04-25T05:33:35.720Z,16.00
2019-04-25T05:36:06.157Z,16.20
2019-04-25T05:38:36.622Z,16.30
2019-04-25T05:41:11.423Z,16.40
2019-04-25T05:43:43.492Z,16.40
2019-04-25T05:46:15.285Z,16.40
2019-04-25T05:48:45.852Z,16.50
2019-04-25T05:51:17.385Z,16.40
2019-04-25T05:53:47.932Z,16.30
2019-04-25T05:56:18.329Z,16.30
2019-04-25T05:58:48.760Z,16.50
2019-04-25T06:01:19.162Z,16.60
2019-04-25T06:03:49.599Z,16.80
2019-04-25T06:06:19.996Z,16.90
2019-04-25T06:08:57.610Z,17.10
2019-04-25T06:11:33.637Z,17.30
2019-04-25T06:14:05.832Z,17.50
2019-04-25T06:16:37.299Z,17.70
2019-04-25T06:19:14.180Z,17.80
2019-04-25T06:21:43.375Z,17.80
2019-04-25T06:24:25.789Z,17.90
2019-04-25T06:27:15.957Z,18.10
2019-04-25T06:29:57.672Z,18.20
2019-04-25T06:32:21.528Z,18.60
2019-04-25T06:34:52.003Z,19.20
2019-04-25T06:37:24.554Z,19.70
2019-04-25T06:39:54.602Z,20.10
2019-04-25T06:42:25.752Z,20.50
2019-04-25T06:44:59.041Z,20.60
2019-04-25T06:47:31.720Z,20.60
2019-04-25T06:50:02.166Z,20.70
2019-04-25T06:52:34.458Z,20.60
2019-04-25T06:55:06.707Z,20.90
2019-04-25T06:57:37.260Z,21.70
2019-04-25T07:00:14.049Z,22.60
2019-04-25T07:02:44.684Z,22.50
2019-04-25T07:05:26.557Z,22.60
2019-04-25T07:07:49.676Z,23.10
2019-04-25T07:10:20.192Z,23.40
2019-04-25T07:12:50.575Z,23.50
2019-04-25T07:15:21.365Z,23.60
2019-04-25T07:17:54.023Z,24.20
2019-04-25T07:20:27.018Z,24.60
2019-04-25T07:22:57.314Z,25.00
2019-04-25T07:25:30.260Z,25.20
2019-04-25T07:28:24.220Z,24.80
2019-04-25T07:31:09.210Z,24.60
2019-04-25T07:33:41.231Z,24.80
2019-04-25T07:36:11.698Z,24.60
2019-04-25T07:38:43.490Z,24.70
2019-04-25T07:41:15.880Z,25.30
2019-04-25T07:43:46.167Z,25.90
2019-04-25T07:46:16.610Z,25.90
2019-04-25T07:48:47.017Z,25.80
2019-04-25T07:51:17.513Z,26.50
2019-04-25T07:53:47.897Z,26.40
2019-04-25T07:56:18.327Z,26.20
2019-04-25T07:58:52.474Z,26.40
2019-04-25T08:01:21.024Z,25.90
2019-04-25T08:03:51.492Z,25.60
2019-04-25T08:06:22.622Z,25.90
2019-04-25T08:08:54.575Z,26.80
2019-04-25T08:11:25.062Z,26.40
2019-04-25T08:13:59.851Z,26.20
2019-04-25T08:16:35.606Z,26.30
2019-04-25T08:19:07.766Z,26.40
2019-04-25T08:21:38.435Z,26.80
2019-04-25T08:24:09.007Z,26.90
2019-04-25T08:26:39.782Z,26.80
2019-04-25T08:29:10.211Z,26.50
2019-04-25T08:31:40.603Z,26.80
2019-04-25T08:34:11.046Z,26.50
2019-04-25T08:36:41.539Z,26.40
2019-04-25T08:39:14.336Z,27.10
2019-04-25T08:41:45.752Z,27.40
2019-04-25T08:44:17.382Z,27.50
2019-04-25T08:46:48.780Z,27.30
2019-04-25T08:49:24.761Z,27.30
2019-04-25T08:51:56.836Z,27.00
2019-04-25T08:54:47.425Z,27.20
2019-04-25T08:57:21.779Z,27.60
2019-04-25T08:59:59.895Z,28.10
2019-04-25T09:02:38.819Z,28.00
2019-04-25T09:05:19.243Z,28.10
2019-04-25T09:07:49.707Z,27.70
2019-04-25T09:10:21.480Z,27.50
2019-04-25T09:12:53.573Z,27.80
2019-04-25T09:15:24.346Z,28.20
2019-04-25T09:17:54.941Z,29.40
2019-04-25T09:20:25.466Z,30.10
2019-04-25T09:22:55.857Z,29.80
2019-04-25T09:25:26.371Z,30.00
2019-04-25T09:27:56.909Z,30.10
2019-04-25T09:30:29.128Z,30.10
2019-04-25T09:33:01.057Z,30.50
2019-04-25T09:35:33.304Z,29.80
2019-04-25T09:38:04.991Z,29.20
2019-04-25T09:40:36.127Z,28.80
2019-04-25T09:43:06.615Z,28.40
2019-04-25T09:45:39.544Z,27.70
2019-04-25T09:48:13.130Z,27.40
2019-04-25T09:50:46.372Z,27.60
2019-04-25T09:53:23.192Z,27.20
2019-04-25T09:55:54.256Z,27.00
2019-04-25T09:58:38.435Z,27.40
2019-04-25T10:01:16.152Z,28.00
2019-04-25T10:03:47.350Z,27.90
2019-04-25T10:06:19.336Z,27.50
2019-04-25T10:08:49.767Z,28.00
2019-04-25T10:11:20.307Z,28.30
2019-04-25T10:14:01.239Z,28.80
2019-04-25T10:16:31.863Z,29.80
2019-04-25T10:19:03.422Z,29.50
2019-04-25T10:21:34.329Z,28.70
2019-04-25T10:24:04.993Z,28.20
2019-04-25T10:26:35.649Z,27.60
2019-04-25T10:29:06.442Z,27.80
2019-04-25T10:31:36.917Z,28.50
2019-04-25T10:34:07.499Z,28.40
2019-04-25T10:36:39.899Z,27.50
2019-04-25T10:39:11.340Z,27.50
2019-04-25T10:41:44.506Z,28.10
2019-04-25T10:44:14.314Z,28.50
2019-04-25T10:46:46.928Z,28.40
2019-04-25T10:49:17.060Z,28.90
2019-04-25T10:51:48.001Z,29.40
2019-04-25T10:54:18.699Z,30.40
2019-04-25T10:56:49.108Z,30.60
2019-04-25T10:59:19.681Z,30.00
2019-04-25T11:01:50.081Z,29.10
2019-04-25T11:04:24.871Z,28.50
2019-04-25T11:06:55.799Z,28.10
2019-04-25T11:09:26.618Z,28.40
2019-04-25T11:11:57.010Z,29.20
2019-04-25T11:14:30.301Z,29.40
2019-04-25T11:17:01.658Z,29.70
2019-04-25T11:19:34.073Z,29.80
2019-04-25T11:22:07.075Z,29.30
2019-04-25T11:24:37.614Z,29.10
2019-04-25T11:27:08.007Z,29.40
2019-04-25T11:29:38.450Z,28.80
2019-04-25T11:32:09.130Z,28.50
2019-04-25T11:34:40.409Z,28.40
2019-04-25T11:37:10.948Z,28.60
2019-04-25T11:39:46.115Z,28.70
2019-04-25T11:42:16.650Z,29.10
2019-04-25T11:44:47.150Z,29.10
2019-04-25T11:47:18.268Z,29.00
2019-04-25T11:49:49.057Z,28.80
2019-04-25T11:52:27.444Z,28.40
2019-04-25T11:54:52.955Z,27.80
2019-04-25T11:57:24.112Z,27.00
2019-04-25T11:59:55.703Z,26.60
2019-04-25T12:02:26.942Z,27.20
2019-04-25T12:04:57.385Z,27.40
2019-04-25T12:07:27.908Z,27.90
2019-04-25T12:09:58.300Z,28.10
2019-04-25T12:12:29.009Z,28.00
2019-04-25T12:14:59.862Z,27.90
2019-04-25T12:17:30.282Z,27.80
2019-04-25T12:20:00.746Z,27.40
2019-04-25T12:22:31.250Z,26.60
2019-04-25T12:25:01.650Z,27.30
2019-04-25T12:27:32.729Z,27.50
2019-04-25T12:30:06.363Z,27.60
2019-04-25T12:32:36.958Z,26.70
2019-04-25T12:35:07.589Z,26.20
2019-04-25T12:37:38.034Z,26.00
2019-04-25T12:40:09.399Z,26.00
2019-04-25T12:42:39.981Z,26.00
2019-04-25T12:45:14.066Z,25.80
2019-04-25T12:47:46.422Z,26.10
2019-04-25T12:50:18.718Z,26.90
2019-04-25T12:52:49.322Z,27.20
2019-04-25T12:55:19.994Z,27.00
2019-04-25T12:57:51.384Z,26.90
2019-04-25T13:00:27.052Z,27.30
2019-04-25T13:02:57.617Z,27.80
2019-04-25T13:05:28.118Z,27.90
2019-04-25T13:07:59.931Z,28.20
2019-04-25T13:10:31.064Z,28.20
2019-04-25T13:13:01.733Z,28.50
2019-04-25T13:15:33.444Z,28.60
2019-04-25T13:18:04.098Z,28.80
2019-04-25T13:20:34.476Z,29.10
2019-04-25T13:23:05.843Z,29.00
2019-04-25T13:25:36.560Z,29.00
2019-04-25T13:28:25.072Z,29.00
2019-04-25T13:31:12.364Z,29.20
2019-04-25T13:33:43.340Z,29.20
2019-04-25T13:36:15.496Z,28.90
2019-04-25T13:38:46.901Z,28.40
2019-04-25T13:41:17.410Z,28.20
2019-04-25T13:43:47.804Z,27.80
2019-04-25T13:46:20.633Z,27.50
2019-04-25T13:48:50.399Z,27.60
2019-04-25T13:51:22.546Z,28.10
2019-04-25T13:53:54.578Z,28.40
2019-04-25T13:56:27.158Z,28.50
2019-04-25T13:58:57.363Z,28.40
2019-04-25T14:01:28.425Z,28.50
2019-04-25T14:03:58.825Z,28.60
2019-04-25T14:06:30.136Z,28.80
2019-04-25T14:09:00.767Z,28.60
2019-04-25T14:11:34.510Z,28.50
2019-04-25T14:14:05.461Z,28.50
2019-04-25T14:16:54.598Z,28.30
2019-04-25T14:19:29.821Z,28.50
2019-04-25T14:22:01.891Z,28.50
2019-04-25T14:24:32.745Z,28.30
2019-04-25T14:27:04.740Z,28.40
2019-04-25T14:29:35.345Z,28.20
2019-04-25T14:32:07.522Z,28.30
2019-04-25T14:34:37.926Z,28.40
2019-04-25T14:37:08.355Z,28.50
2019-04-25T14:39:39.025Z,28.20
2019-04-25T14:42:09.463Z,28.10
2019-04-25T14:44:39.925Z,28.10
2019-04-25T14:47:10.364Z,27.90
2019-04-25T14:49:40.753Z,27.60
2019-04-25T14:52:11.183Z,27.40
2019-04-25T14:54:43.216Z,26.90
2019-04-25T14:57:26.738Z,26.70
2019-04-25T15:00:01.202Z,26.50
2019-04-25T15:02:32.060Z,26.40
2019-04-25T15:05:04.291Z,26.20
2019-04-25T15:07:35.759Z,26.00
2019-04-25T15:10:08.099Z,25.80
2019-04-25T15:12:38.565Z,26.00
2019-04-25T15:15:09.169Z,26.10
2019-04-25T15:17:46.279Z,26.30
2019-04-25T15:20:11.782Z,26.40
2019-04-25T15:22:42.208Z,26.20
2019-04-25T15:25:12.668Z,25.90
2019-04-25T15:27:43.196Z,25.80
2019-04-25T15:30:15.301Z,25.90
2019-04-25T15:32:45.760Z,26.00
2019-04-25T15:35:17.801Z,26.10
2019-04-25T15:37:49.921Z,26.40
2019-04-25T15:40:36.894Z,26.50
2019-04-25T15:43:11.379Z,26.60
2019-04-25T15:45:49.400Z,26.60
2019-04-25T15:48:19.900Z,26.50
2019-04-25T15:50:50.773Z,26.40
2019-04-25T15:53:21.210Z,26.30
2019-04-25T15:55:51.767Z,26.30
2019-04-25T15:58:22.721Z,26.30
2019-04-25T16:00:53.167Z,26.20
2019-04-25T16:03:23.611Z,26.20
2019-04-25T16:05:54.008Z,26.00
2019-04-25T16:08:24.749Z,25.80
2019-04-25T16:10:55.423Z,25.70
2019-04-25T16:13:26.939Z,25.70
2019-04-25T16:15:57.407Z,25.60
2019-04-25T16:18:28.458Z,25.50
2019-04-25T16:20:59.268Z,25.50
2019-04-25T16:23:30.243Z,25.60
2019-04-25T16:26:00.716Z,25.60
2019-04-25T16:28:31.740Z,25.60
2019-04-25T16:31:04.374Z,25.60
2019-04-25T16:33:34.464Z,25.50
2019-04-25T16:36:04.972Z,25.40
2019-04-25T16:38:35.406Z,25.30
2019-04-25T16:41:06.021Z,25.20
2019-04-25T16:43:38.936Z,25.10
2019-04-25T16:46:09.546Z,25.10
2019-04-25T16:48:39.955Z,25.10
2019-04-25T16:51:10.524Z,25.00
2019-04-25T16:53:40.907Z,24.90
2019-04-25T16:56:12.679Z,24.80
2019-04-25T16:58:43.133Z,24.70
2019-04-25T17:01:14.310Z,24.50
2019-04-25T17:03:44.919Z,24.50
2019-04-25T17:06:15.688Z,24.30
2019-04-25T17:08:46.348Z,24.20
2019-04-25T17:11:16.952Z,24.10
2019-04-25T17:13:51.669Z,24.10
2019-04-25T17:16:23.808Z,23.90
2019-04-25T17:19:01.863Z,23.80
2019-04-25T17:21:33.432Z,23.70
2019-04-25T17:24:04.342Z,23.60
2019-04-25T17:26:34.870Z,23.50
2019-04-25T17:29:06.965Z,23.30
2019-04-25T17:31:42.643Z,23.10
2019-04-25T17:34:20.746Z,22.90
2019-04-25T17:36:53.790Z,22.70
2019-04-25T17:39:28.671Z,22.40
2019-04-25T17:42:01.340Z,22.20
2019-04-25T17:44:31.644Z,22.00
2019-04-25T17:47:06.459Z,21.70
2019-04-25T17:49:35.194Z,21.40
2019-04-25T17:52:05.764Z,21.20
2019-04-25T17:54:36.631Z,21.00
2019-04-25T17:57:07.262Z,20.80
2019-04-25T17:59:37.684Z,20.70
2019-04-25T18:33:20.693Z,18.50
2019-04-25T18:36:04.679Z,18.30
2019-04-25T18:38:48.316Z,18.20
2019-04-25T18:41:20.369Z,18.10
2019-04-25T18:43:52.519Z,17.90
2019-04-25T18:46:24.565Z,17.80
2019-04-25T18:48:55.000Z,17.60
2019-04-25T18:51:25.434Z,17.50
2019-04-25T18:53:57.803Z,17.40
2019-04-25T18:56:32.650Z,17.30
2019-04-25T18:59:20.885Z,17.10
2019-04-25T19:01:55.895Z,16.90
2019-04-25T19:04:38.202Z,16.80
2019-04-25T19:07:08.740Z,16.80
2019-04-25T19:09:39.383Z,16.70
2019-04-25T19:12:09.929Z,16.50
2019-04-25T19:14:41.331Z,16.40
2019-04-25T19:17:11.957Z,16.30
2019-04-25T19:19:43.499Z,16.20
2019-04-25T19:22:14.048Z,16.20
2019-04-25T19:24:46.079Z,16.10
2019-04-25T19:27:23.603Z,16.00
2019-04-25T19:29:52.122Z,16.00
2019-04-25T19:32:21.773Z,15.90
2019-04-25T19:34:52.170Z,15.80
2019-04-25T19:37:22.612Z,15.70
2019-04-25T19:40:09.527Z,15.60
2019-04-25T19:42:47.097Z,15.60
2019-04-25T19:45:17.637Z,15.40
2019-04-25T19:47:49.210Z,15.30
2019-04-25T19:50:20.789Z,15.30
2019-04-25T19:52:52.064Z,15.30
2019-04-25T19:55:22.598Z,15.30
2019-04-25T19:57:53.113Z,15.30
2019-04-25T20:00:23.578Z,15.20
2019-04-25T20:02:55.667Z,15.10
2019-04-25T20:05:27.837Z,15.10
2019-04-25T20:08:02.603Z,15.00
2019-04-25T20:10:37.412Z,14.90
2019-04-25T20:13:07.844Z,14.80
2019-04-25T20:15:38.311Z,14.70
2019-04-25T20:18:08.750Z,14.60
2019-04-25T20:20:39.146Z,14.60
2019-04-25T20:23:09.581Z,14.50
2019-04-25T20:25:39.972Z,14.40
2019-04-25T20:28:10.474Z,14.40
2019-04-25T20:30:40.988Z,14.30
2019-04-25T20:33:11.436Z,14.40
2019-04-25T20:35:43.402Z,14.30
2019-04-25T20:38:13.867Z,14.20
2019-04-25T20:40:45.165Z,14.20
2019-04-25T20:43:16.410Z,14.10
2019-04-25T20:45:47.360Z,14.00
2019-04-25T20:48:18.657Z,14.00
2019-04-25T20:50:49.119Z,13.90
2019-04-25T20:53:19.652Z,13.80
2019-04-25T20:55:50.827Z,13.70
2019-04-25T20:58:23.254Z,13.70
2019-04-25T21:00:55.934Z,13.60
2019-04-25T21:03:26.564Z,13.60
2019-04-25T21:05:59.225Z,13.60
2019-04-25T21:08:29.893Z,13.50
2019-04-25T21:11:00.337Z,13.50
2019-04-25T21:13:44.393Z,13.40
2019-04-25T21:16:32.234Z,13.40
2019-04-25T21:19:07.032Z,13.40
2019-04-25T21:21:37.633Z,13.30
2019-04-25T21:24:08.029Z,13.20
2019-04-25T21:26:38.470Z,13.20
2019-04-25T21:29:10.048Z,13.10
2019-04-25T21:31:40.928Z,13.10
2019-04-25T21:34:11.895Z,13.10
2019-04-25T21:36:42.834Z,13.10
2019-04-25T21:39:21.148Z,13.10
2019-04-25T21:41:53.466Z,13.10
2019-04-25T21:44:24.190Z,13.00
2019-04-25T21:46:54.716Z,12.90
2019-04-25T21:49:25.455Z,12.80
2019-04-25T21:51:56.990Z,12.70
2019-04-25T21:54:27.446Z,12.60
2019-04-25T21:56:59.545Z,12.60
2019-04-25T21:59:30.271Z,12.60
2019-04-25T22:02:00.776Z,12.50
2019-04-25T22:04:38.693Z,12.50
2019-04-25T22:07:05.093Z,12.40
2019-04-25T22:09:35.966Z,12.40
2019-04-25T22:12:11.672Z,12.40
2019-04-25T22:14:42.071Z,12.30
2019-04-25T22:17:12.517Z,12.20
2019-04-25T22:19:43.356Z,12.20
2019-04-25T22:22:14.172Z,12.10
2019-04-25T22:24:44.685Z,12.10
2019-04-25T22:27:17.721Z,12.00
2019-04-25T22:29:49.803Z,12.00
2019-04-25T22:32:21.872Z,11.90
2019-04-25T22:34:58.288Z,11.90
2019-04-25T22:37:29.122Z,12.00
2019-04-25T22:39:59.993Z,11.90
2019-04-25T22:42:30.424Z,11.90
2019-04-25T22:45:01.752Z,11.90
2019-04-25T22:47:33.833Z,11.80
2019-04-25T22:50:06.476Z,11.80
2019-04-25T22:52:37.301Z,11.70
2019-04-25T22:55:09.213Z,11.70
2019-04-25T22:57:39.882Z,11.70
2019-04-25T23:00:12.464Z,11.70
2019-04-25T23:02:52.135Z,11.60
2019-04-25T23:05:24.579Z,11.60
2019-04-25T23:07:54.973Z,11.50
2019-04-25T23:10:26.008Z,11.40
2019-04-25T23:12:56.406Z,11.40
2019-04-25T23:15:26.835Z,11.40
2019-04-25T23:17:57.515Z,11.30
2019-04-25T23:20:28.135Z,11.30
2019-04-25T23:22:59.094Z,11.20
2019-04-25T23:25:31.249Z,11.20
2019-04-25T23:28:06.399Z,11.10
2019-04-25T23:30:39.125Z,11.10
2019-04-25T23:33:10.538Z,11.00
2019-04-25T23:35:42.318Z,11.00
2019-04-25T23:38:14.729Z,11.00
2019-04-25T23:40:44.965Z,10.90
2019-04-25T23:43:15.858Z,10.90
2019-04-25T23:45:46.353Z,10.90
2019-04-25T23:48:17.040Z,10.90
2019-04-25T23:50:47.545Z,10.90
2019-04-25T23:53:17.943Z,10.90
2019-04-25T23:55:48.381Z,10.80
2019-04-25T23:58:18.799Z,10.80
